sensor_id;sensor_type;location;lat;lon;timestamp;temperature;humidity
8226;DHT22;4154;48.810;9.012;2022-07-10T00:01:54;18.50;92.20
8226;DHT22;4154;48.810;9.012;2022-07-10T00:04:20;18.50;92.20
8226;DHT22;4154;48.810;9.012;2022-07-10T00:06:45;18.50;92.40
8226;DHT22;4154;48.810;9.012;2022-07-10T00:09:14;18.40;92.40
8226;DHT22;4154;48.810;9.012;2022-07-10T00:11:41;18.30;92.50
8226;DHT22;4154;48.810;9.012;2022-07-10T00:14:08;18.30;92.70
8226;DHT22;4154;48.810;9.012;2022-07-10T00:16:34;18.30;92.80
8226;DHT22;4154;48.810;9.012;2022-07-10T00:19:00;18.20;93.20
8226;DHT22;4154;48.810;9.012;2022-07-10T00:23:52;18.20;92.80
8226;DHT22;4154;48.810;9.012;2022-07-10T00:26:18;18.10;93.10
8226;DHT22;4154;48.810;9.012;2022-07-10T00:28:44;18.10;93.20
8226;DHT22;4154;48.810;9.012;2022-07-10T00:31:09;18.00;93.20
8226;DHT22;4154;48.810;9.012;2022-07-10T00:33:37;18.00;93.30
8226;DHT22;4154;48.810;9.012;2022-07-10T00:36:04;18.00;93.30
8226;DHT22;4154;48.810;9.012;2022-07-10T00:38:31;18.00;93.40
8226;DHT22;4154;48.810;9.012;2022-07-10T00:43:23;17.90;93.10
8226;DHT22;4154;48.810;9.012;2022-07-10T00:45:49;17.90;93.30
8226;DHT22;4154;48.810;9.012;2022-07-10T00:48:15;17.90;93.30
8226;DHT22;4154;48.810;9.012;2022-07-10T00:50:45;17.90;93.20
8226;DHT22;4154;48.810;9.012;2022-07-10T00:53:13;17.90;93.10
8226;DHT22;4154;48.810;9.012;2022-07-10T00:55:40;17.90;93.10
8226;DHT22;4154;48.810;9.012;2022-07-10T00:58:08;17.90;93.10
8226;DHT22;4154;48.810;9.012;2022-07-10T01:00:36;17.90;93.10
8226;DHT22;4154;48.810;9.012;2022-07-10T01:03:03;17.80;93.00
8226;DHT22;4154;48.810;9.012;2022-07-10T01:05:29;17.80;93.10
8226;DHT22;4154;48.810;9.012;2022-07-10T01:07:55;17.80;93.30
8226;DHT22;4154;48.810;9.012;2022-07-10T01:10:21;17.80;93.10
8226;DHT22;4154;48.810;9.012;2022-07-10T01:12:47;17.80;93.40
8226;DHT22;4154;48.810;9.012;2022-07-10T01:15:13;17.70;93.20
8226;DHT22;4154;48.810;9.012;2022-07-10T01:20:09;17.60;93.00
8226;DHT22;4154;48.810;9.012;2022-07-10T01:22:39;17.70;93.20
8226;DHT22;4154;48.810;9.012;2022-07-10T01:25:05;17.70;93.20
8226;DHT22;4154;48.810;9.012;2022-07-10T01:27:31;18.00;93.70
8226;DHT22;4154;48.810;9.012;2022-07-10T01:32:24;17.70;93.20
8226;DHT22;4154;48.810;9.012;2022-07-10T01:34:50;17.80;94.00
8226;DHT22;4154;48.810;9.012;2022-07-10T01:37:15;17.80;93.50
8226;DHT22;4154;48.810;9.012;2022-07-10T01:39:41;17.80;93.60
8226;DHT22;4154;48.810;9.012;2022-07-10T01:44:33;17.70;93.40
8226;DHT22;4154;48.810;9.012;2022-07-10T01:46:59;17.80;93.80
8226;DHT22;4154;48.810;9.012;2022-07-10T01:49:25;17.80;93.70
8226;DHT22;4154;48.810;9.012;2022-07-10T01:51:51;17.80;93.80
8226;DHT22;4154;48.810;9.012;2022-07-10T01:54:16;17.80;93.90
8226;DHT22;4154;48.810;9.012;2022-07-10T01:59:08;17.70;93.80
8226;DHT22;4154;48.810;9.012;2022-07-10T02:04:02;17.70;93.90
8226;DHT22;4154;48.810;9.012;2022-07-10T02:06:47;17.70;94.30
8226;DHT22;4154;48.810;9.012;2022-07-10T02:09:13;17.60;94.40
8226;DHT22;4154;48.810;9.012;2022-07-10T02:11:40;17.60;94.70
8226;DHT22;4154;48.810;9.012;2022-07-10T02:14:06;17.60;94.30
8226;DHT22;4154;48.810;9.012;2022-07-10T02:16:33;17.60;94.60
8226;DHT22;4154;48.810;9.012;2022-07-10T02:18:59;17.60;94.50
8226;DHT22;4154;48.810;9.012;2022-07-10T02:21:25;17.60;94.60
8226;DHT22;4154;48.810;9.012;2022-07-10T02:23:51;17.60;94.60
8226;DHT22;4154;48.810;9.012;2022-07-10T02:26:17;17.50;94.70
8226;DHT22;4154;48.810;9.012;2022-07-10T02:31:08;17.50;94.60
8226;DHT22;4154;48.810;9.012;2022-07-10T02:33:34;17.40;95.00
8226;DHT22;4154;48.810;9.012;2022-07-10T02:36:02;17.40;94.90
8226;DHT22;4154;48.810;9.012;2022-07-10T02:38:28;17.40;95.00
8226;DHT22;4154;48.810;9.012;2022-07-10T02:40:54;17.40;95.00
8226;DHT22;4154;48.810;9.012;2022-07-10T02:43:36;17.40;95.00
8226;DHT22;4154;48.810;9.012;2022-07-10T02:46:03;17.30;95.10
8226;DHT22;4154;48.810;9.012;2022-07-10T02:48:29;17.30;95.20
8226;DHT22;4154;48.810;9.012;2022-07-10T02:50:54;17.30;95.40
8226;DHT22;4154;48.810;9.012;2022-07-10T02:55:46;17.30;95.40
8226;DHT22;4154;48.810;9.012;2022-07-10T02:58:12;17.20;95.60
8226;DHT22;4154;48.810;9.012;2022-07-10T03:00:40;17.20;95.60
8226;DHT22;4154;48.810;9.012;2022-07-10T03:03:42;17.20;95.60
8226;DHT22;4154;48.810;9.012;2022-07-10T03:06:07;17.20;95.70
8226;DHT22;4154;48.810;9.012;2022-07-10T03:08:33;17.20;95.70
8226;DHT22;4154;48.810;9.012;2022-07-10T03:10:59;17.20;95.70
8226;DHT22;4154;48.810;9.012;2022-07-10T03:13:48;17.20;95.70
8226;DHT22;4154;48.810;9.012;2022-07-10T03:16:14;17.20;95.80
8226;DHT22;4154;48.810;9.012;2022-07-10T03:21:06;17.10;95.60
8226;DHT22;4154;48.810;9.012;2022-07-10T03:23:32;17.10;95.90
8226;DHT22;4154;48.810;9.012;2022-07-10T03:28:24;17.10;95.70
8226;DHT22;4154;48.810;9.012;2022-07-10T03:30:50;17.10;95.80
8226;DHT22;4154;48.810;9.012;2022-07-10T03:33:16;17.10;96.20
8226;DHT22;4154;48.810;9.012;2022-07-10T03:35:42;17.10;96.30
8226;DHT22;4154;48.810;9.012;2022-07-10T03:38:08;17.00;96.00
8226;DHT22;4154;48.810;9.012;2022-07-10T03:40:33;17.00;96.00
8226;DHT22;4154;48.810;9.012;2022-07-10T03:42:59;17.00;96.00
8226;DHT22;4154;48.810;9.012;2022-07-10T03:45:25;16.90;96.10
8226;DHT22;4154;48.810;9.012;2022-07-10T03:47:51;16.90;96.10
8226;DHT22;4154;48.810;9.012;2022-07-10T03:50:17;16.80;96.10
8226;DHT22;4154;48.810;9.012;2022-07-10T03:52:42;16.80;96.10
8226;DHT22;4154;48.810;9.012;2022-07-10T03:55:09;16.80;96.10
8226;DHT22;4154;48.810;9.012;2022-07-10T03:57:35;16.80;96.10
8226;DHT22;4154;48.810;9.012;2022-07-10T04:00:25;16.70;96.10
8226;DHT22;4154;48.810;9.012;2022-07-10T04:03:02;16.70;96.20
8226;DHT22;4154;48.810;9.012;2022-07-10T04:05:30;16.70;96.20
8226;DHT22;4154;48.810;9.012;2022-07-10T04:07:57;16.70;96.30
8226;DHT22;4154;48.810;9.012;2022-07-10T04:10:25;16.70;96.30
8226;DHT22;4154;48.810;9.012;2022-07-10T04:12:52;16.70;96.30
8226;DHT22;4154;48.810;9.012;2022-07-10T04:15:18;16.70;96.30
8226;DHT22;4154;48.810;9.012;2022-07-10T04:17:45;16.70;96.30
8226;DHT22;4154;48.810;9.012;2022-07-10T04:20:12;16.70;96.30
8226;DHT22;4154;48.810;9.012;2022-07-10T04:22:38;16.60;96.20
8226;DHT22;4154;48.810;9.012;2022-07-10T04:25:05;16.70;96.10
8226;DHT22;4154;48.810;9.012;2022-07-10T04:27:31;16.60;96.10
8226;DHT22;4154;48.810;9.012;2022-07-10T04:29:57;16.60;96.20
8226;DHT22;4154;48.810;9.012;2022-07-10T04:32:23;16.80;96.20
8226;DHT22;4154;48.810;9.012;2022-07-10T04:34:49;16.60;96.20
8226;DHT22;4154;48.810;9.012;2022-07-10T04:37:15;16.60;96.10
8226;DHT22;4154;48.810;9.012;2022-07-10T04:39:41;16.60;96.30
8226;DHT22;4154;48.810;9.012;2022-07-10T04:42:08;16.70;95.90
8226;DHT22;4154;48.810;9.012;2022-07-10T04:44:35;16.60;96.00
8226;DHT22;4154;48.810;9.012;2022-07-10T04:47:02;16.60;96.00
8226;DHT22;4154;48.810;9.012;2022-07-10T04:49:28;16.60;95.90
8226;DHT22;4154;48.810;9.012;2022-07-10T04:51:55;16.60;95.90
8226;DHT22;4154;48.810;9.012;2022-07-10T04:54:24;16.60;95.70
8226;DHT22;4154;48.810;9.012;2022-07-10T04:56:50;16.50;95.80
8226;DHT22;4154;48.810;9.012;2022-07-10T04:59:16;16.50;95.80
8226;DHT22;4154;48.810;9.012;2022-07-10T05:01:43;16.50;95.80
8226;DHT22;4154;48.810;9.012;2022-07-10T05:04:09;16.50;95.70
8226;DHT22;4154;48.810;9.012;2022-07-10T05:06:35;16.50;95.70
8226;DHT22;4154;48.810;9.012;2022-07-10T05:09:01;16.50;95.50
8226;DHT22;4154;48.810;9.012;2022-07-10T05:11:28;16.50;95.70
8226;DHT22;4154;48.810;9.012;2022-07-10T05:13:54;16.50;95.50
8226;DHT22;4154;48.810;9.012;2022-07-10T05:16:19;16.60;95.60
8226;DHT22;4154;48.810;9.012;2022-07-10T05:21:12;16.50;95.10
8226;DHT22;4154;48.810;9.012;2022-07-10T05:23:38;16.50;95.20
8226;DHT22;4154;48.810;9.012;2022-07-10T05:26:05;16.50;95.30
8226;DHT22;4154;48.810;9.012;2022-07-10T05:28:31;16.50;95.30
8226;DHT22;4154;48.810;9.012;2022-07-10T05:30:57;16.50;95.20
8226;DHT22;4154;48.810;9.012;2022-07-10T05:33:23;16.50;95.20
8226;DHT22;4154;48.810;9.012;2022-07-10T05:35:49;16.50;95.10
8226;DHT22;4154;48.810;9.012;2022-07-10T05:38:15;16.50;94.90
8226;DHT22;4154;48.810;9.012;2022-07-10T05:40:42;16.50;94.70
8226;DHT22;4154;48.810;9.012;2022-07-10T05:45:35;16.50;94.40
8226;DHT22;4154;48.810;9.012;2022-07-10T05:48:01;16.50;94.60
8226;DHT22;4154;48.810;9.012;2022-07-10T05:52:53;16.60;94.40
8226;DHT22;4154;48.810;9.012;2022-07-10T05:55:19;16.50;94.40
8226;DHT22;4154;48.810;9.012;2022-07-10T05:57:44;16.60;94.30
8226;DHT22;4154;48.810;9.012;2022-07-10T06:00:10;16.60;94.10
8226;DHT22;4154;48.810;9.012;2022-07-10T06:02:37;16.60;94.00
8226;DHT22;4154;48.810;9.012;2022-07-10T06:05:03;16.60;93.80
8226;DHT22;4154;48.810;9.012;2022-07-10T06:07:29;16.60;93.70
8226;DHT22;4154;48.810;9.012;2022-07-10T06:12:21;16.90;93.60
8226;DHT22;4154;48.810;9.012;2022-07-10T06:14:47;16.00;93.40
8226;DHT22;4154;48.810;9.012;2022-07-10T06:19:39;16.60;93.60
8226;DHT22;4154;48.810;9.012;2022-07-10T06:22:05;16.60;93.70
8226;DHT22;4154;48.810;9.012;2022-07-10T06:24:49;16.60;93.50
8226;DHT22;4154;48.810;9.012;2022-07-10T06:27:15;16.70;93.50
8226;DHT22;4154;48.810;9.012;2022-07-10T06:32:08;16.70;92.80
8226;DHT22;4154;48.810;9.012;2022-07-10T06:34:34;16.70;93.10
8226;DHT22;4154;48.810;9.012;2022-07-10T06:37:00;16.70;92.90
8226;DHT22;4154;48.810;9.012;2022-07-10T06:39:26;16.70;92.80
8226;DHT22;4154;48.810;9.012;2022-07-10T06:41:59;16.70;92.60
8226;DHT22;4154;48.810;9.012;2022-07-10T06:44:25;16.70;92.20
8226;DHT22;4154;48.810;9.012;2022-07-10T06:46:51;16.70;92.20
8226;DHT22;4154;48.810;9.012;2022-07-10T06:49:36;16.70;92.50
8226;DHT22;4154;48.810;9.012;2022-07-10T06:52:06;16.70;92.30
8226;DHT22;4154;48.810;9.012;2022-07-10T06:54:33;16.80;92.10
8226;DHT22;4154;48.810;9.012;2022-07-10T06:56:59;16.80;92.30
8226;DHT22;4154;48.810;9.012;2022-07-10T06:59:25;16.80;92.10
8226;DHT22;4154;48.810;9.012;2022-07-10T07:01:51;16.80;92.00
8226;DHT22;4154;48.810;9.012;2022-07-10T07:04:17;16.70;91.70
8226;DHT22;4154;48.810;9.012;2022-07-10T07:06:42;16.70;91.90
8226;DHT22;4154;48.810;9.012;2022-07-10T07:09:08;16.80;92.30
8226;DHT22;4154;48.810;9.012;2022-07-10T07:11:34;16.90;91.90
8226;DHT22;4154;48.810;9.012;2022-07-10T07:14:00;16.90;91.30
8226;DHT22;4154;48.810;9.012;2022-07-10T07:16:25;16.90;91.40
8226;DHT22;4154;48.810;9.012;2022-07-10T07:19:05;16.90;91.50
8226;DHT22;4154;48.810;9.012;2022-07-10T07:21:32;16.90;91.10
8226;DHT22;4154;48.810;9.012;2022-07-10T07:24:16;16.90;91.10
8226;DHT22;4154;48.810;9.012;2022-07-10T07:26:46;16.90;91.20
8226;DHT22;4154;48.810;9.012;2022-07-10T07:29:16;16.80;90.70
8226;DHT22;4154;48.810;9.012;2022-07-10T07:31:43;16.90;91.00
8226;DHT22;4154;48.810;9.012;2022-07-10T07:34:10;16.90;91.20
8226;DHT22;4154;48.810;9.012;2022-07-10T07:39:03;17.00;90.50
8226;DHT22;4154;48.810;9.012;2022-07-10T07:41:29;17.00;90.20
8226;DHT22;4154;48.810;9.012;2022-07-10T07:43:55;17.00;89.90
8226;DHT22;4154;48.810;9.012;2022-07-10T07:46:21;17.00;89.20
8226;DHT22;4154;48.810;9.012;2022-07-10T07:48:47;17.00;89.00
8226;DHT22;4154;48.810;9.012;2022-07-10T07:51:13;17.00;88.80
8226;DHT22;4154;48.810;9.012;2022-07-10T07:53:39;17.00;89.10
8226;DHT22;4154;48.810;9.012;2022-07-10T07:56:05;17.10;88.80
8226;DHT22;4154;48.810;9.012;2022-07-10T07:58:31;17.10;88.90
8226;DHT22;4154;48.810;9.012;2022-07-10T08:00:58;17.10;89.30
8226;DHT22;4154;48.810;9.012;2022-07-10T08:03:24;17.10;89.00
8226;DHT22;4154;48.810;9.012;2022-07-10T08:05:50;17.10;88.90
8226;DHT22;4154;48.810;9.012;2022-07-10T08:10:42;17.20;88.10
8226;DHT22;4154;48.810;9.012;2022-07-10T08:13:08;17.20;87.40
8226;DHT22;4154;48.810;9.012;2022-07-10T08:15:34;17.20;87.90
8226;DHT22;4154;48.810;9.012;2022-07-10T08:18:02;17.20;88.30
8226;DHT22;4154;48.810;9.012;2022-07-10T08:20:30;17.20;88.30
8226;DHT22;4154;48.810;9.012;2022-07-10T08:22:57;17.20;88.10
8226;DHT22;4154;48.810;9.012;2022-07-10T08:25:23;17.30;88.00
8226;DHT22;4154;48.810;9.012;2022-07-10T08:27:50;17.30;87.90
8226;DHT22;4154;48.810;9.012;2022-07-10T08:30:16;17.40;87.80
8226;DHT22;4154;48.810;9.012;2022-07-10T08:32:42;17.40;86.90
8226;DHT22;4154;48.810;9.012;2022-07-10T08:35:09;17.40;86.80
8226;DHT22;4154;48.810;9.012;2022-07-10T08:37:43;17.40;86.90
8226;DHT22;4154;48.810;9.012;2022-07-10T08:40:12;17.40;87.10
8226;DHT22;4154;48.810;9.012;2022-07-10T08:42:40;17.40;87.20
8226;DHT22;4154;48.810;9.012;2022-07-10T08:45:07;17.50;86.30
8226;DHT22;4154;48.810;9.012;2022-07-10T08:47:36;17.60;86.90
8226;DHT22;4154;48.810;9.012;2022-07-10T08:50:04;17.60;86.30
8226;DHT22;4154;48.810;9.012;2022-07-10T08:52:43;17.70;86.40
8226;DHT22;4154;48.810;9.012;2022-07-10T08:55:16;17.70;85.20
8226;DHT22;4154;48.810;9.012;2022-07-10T08:57:43;17.70;85.30
8226;DHT22;4154;48.810;9.012;2022-07-10T09:00:10;17.70;85.50
8226;DHT22;4154;48.810;9.012;2022-07-10T09:02:36;17.70;85.20
8226;DHT22;4154;48.810;9.012;2022-07-10T09:05:01;17.70;85.00
8226;DHT22;4154;48.810;9.012;2022-07-10T09:07:35;17.70;85.50
8226;DHT22;4154;48.810;9.012;2022-07-10T09:10:06;17.70;85.90
8226;DHT22;4154;48.810;9.012;2022-07-10T09:13:00;17.70;85.70
8226;DHT22;4154;48.810;9.012;2022-07-10T09:15:28;17.70;84.80
8226;DHT22;4154;48.810;9.012;2022-07-10T09:17:59;17.70;84.90
8226;DHT22;4154;48.810;9.012;2022-07-10T09:20:36;17.70;85.10
8226;DHT22;4154;48.810;9.012;2022-07-10T09:23:20;17.60;85.00
8226;DHT22;4154;48.810;9.012;2022-07-10T09:25:49;17.60;85.30
8226;DHT22;4154;48.810;9.012;2022-07-10T09:28:18;17.70;85.90
8226;DHT22;4154;48.810;9.012;2022-07-10T09:30:45;17.70;85.40
8226;DHT22;4154;48.810;9.012;2022-07-10T09:33:26;17.70;85.70
8226;DHT22;4154;48.810;9.012;2022-07-10T09:38:56;17.80;85.00
8226;DHT22;4154;48.810;9.012;2022-07-10T09:41:29;17.90;85.70
8226;DHT22;4154;48.810;9.012;2022-07-10T09:43:59;18.00;85.20
8226;DHT22;4154;48.810;9.012;2022-07-10T09:46:35;18.00;85.40
8226;DHT22;4154;48.810;9.012;2022-07-10T09:49:10;18.10;85.30
8226;DHT22;4154;48.810;9.012;2022-07-10T09:51:43;18.00;84.70
8226;DHT22;4154;48.810;9.012;2022-07-10T09:54:11;18.00;85.30
8226;DHT22;4154;48.810;9.012;2022-07-10T09:56:39;18.00;86.40
8226;DHT22;4154;48.810;9.012;2022-07-10T09:59:19;18.00;86.70
8226;DHT22;4154;48.810;9.012;2022-07-10T10:01:50;18.10;85.50
8226;DHT22;4154;48.810;9.012;2022-07-10T10:04:21;18.30;85.10
8226;DHT22;4154;48.810;9.012;2022-07-10T10:06:52;18.40;84.00
8226;DHT22;4154;48.810;9.012;2022-07-10T10:09:24;18.40;83.30
8226;DHT22;4154;48.810;9.012;2022-07-10T10:12:31;18.30;83.00
8226;DHT22;4154;48.810;9.012;2022-07-10T10:15:19;18.20;83.60
8226;DHT22;4154;48.810;9.012;2022-07-10T10:17:47;18.20;83.30
8226;DHT22;4154;48.810;9.012;2022-07-10T10:20:16;18.20;83.20
8226;DHT22;4154;48.810;9.012;2022-07-10T10:23:02;18.30;84.20
8226;DHT22;4154;48.810;9.012;2022-07-10T10:25:32;18.40;83.60
8226;DHT22;4154;48.810;9.012;2022-07-10T10:28:05;18.40;82.70
8226;DHT22;4154;48.810;9.012;2022-07-10T10:30:38;18.40;82.30
8226;DHT22;4154;48.810;9.012;2022-07-10T10:36:03;18.40;83.20
8226;DHT22;4154;48.810;9.012;2022-07-10T10:41:28;18.40;81.90
8226;DHT22;4154;48.810;9.012;2022-07-10T10:49:17;18.70;81.70
8226;DHT22;4154;48.810;9.012;2022-07-10T10:52:03;18.70;80.30
8226;DHT22;4154;48.810;9.012;2022-07-10T10:57:21;18.50;81.10
8226;DHT22;4154;48.810;9.012;2022-07-10T10:59:49;18.50;81.50
8226;DHT22;4154;48.810;9.012;2022-07-10T11:02:21;18.60;81.60
8226;DHT22;4154;48.810;9.012;2022-07-10T11:07:59;18.90;79.40
8226;DHT22;4154;48.810;9.012;2022-07-10T11:10:43;19.00;78.90
8226;DHT22;4154;48.810;9.012;2022-07-10T11:13:14;19.00;78.00
8226;DHT22;4154;48.810;9.012;2022-07-10T11:15:46;18.90;77.90
8226;DHT22;4154;48.810;9.012;2022-07-10T11:18:15;18.90;78.80
8226;DHT22;4154;48.810;9.012;2022-07-10T11:20:45;19.10;78.40
8226;DHT22;4154;48.810;9.012;2022-07-10T11:26:06;19.20;78.50
8226;DHT22;4154;48.810;9.012;2022-07-10T11:28:57;19.10;78.20
8226;DHT22;4154;48.810;9.012;2022-07-10T11:31:24;19.10;76.50
8226;DHT22;4154;48.810;9.012;2022-07-10T11:33:55;19.20;78.80
8226;DHT22;4154;48.810;9.012;2022-07-10T11:36:26;19.30;77.90
8226;DHT22;4154;48.810;9.012;2022-07-10T11:38:58;19.30;76.50
8226;DHT22;4154;48.810;9.012;2022-07-10T11:41:32;19.30;77.10
8226;DHT22;4154;48.810;9.012;2022-07-10T11:44:00;19.30;76.60
8226;DHT22;4154;48.810;9.012;2022-07-10T11:46:36;19.30;78.10
8226;DHT22;4154;48.810;9.012;2022-07-10T11:49:05;19.50;76.20
8226;DHT22;4154;48.810;9.012;2022-07-10T11:51:34;19.50;74.80
8226;DHT22;4154;48.810;9.012;2022-07-10T11:54:08;19.60;74.80
8226;DHT22;4154;48.810;9.012;2022-07-10T11:56:51;19.70;75.60
8226;DHT22;4154;48.810;9.012;2022-07-10T11:59:23;19.80;75.30
8226;DHT22;4154;48.810;9.012;2022-07-10T12:01:52;19.90;75.90
8226;DHT22;4154;48.810;9.012;2022-07-10T12:04:20;20.10;75.40
8226;DHT22;4154;48.810;9.012;2022-07-10T12:06:50;20.20;74.20
8226;DHT22;4154;48.810;9.012;2022-07-10T12:09:18;20.20;73.70
8226;DHT22;4154;48.810;9.012;2022-07-10T12:12:02;20.20;72.40
8226;DHT22;4154;48.810;9.012;2022-07-10T12:14:29;20.10;72.50
8226;DHT22;4154;48.810;9.012;2022-07-10T12:16:57;20.10;74.50
8226;DHT22;4154;48.810;9.012;2022-07-10T12:19:28;20.20;72.80
8226;DHT22;4154;48.810;9.012;2022-07-10T12:21:57;20.20;73.50
8226;DHT22;4154;48.810;9.012;2022-07-10T12:24:25;20.30;73.00
8226;DHT22;4154;48.810;9.012;2022-07-10T12:26:52;20.30;71.20
8226;DHT22;4154;48.810;9.012;2022-07-10T12:29:30;20.20;70.90
8226;DHT22;4154;48.810;9.012;2022-07-10T12:32:00;20.30;72.30
8226;DHT22;4154;48.810;9.012;2022-07-10T12:34:40;20.40;71.90
8226;DHT22;4154;48.810;9.012;2022-07-10T12:37:13;20.40;70.90
8226;DHT22;4154;48.810;9.012;2022-07-10T12:39:50;20.20;71.10
8226;DHT22;4154;48.810;9.012;2022-07-10T12:42:30;20.20;72.80
8226;DHT22;4154;48.810;9.012;2022-07-10T12:45:12;20.20;73.50
8226;DHT22;4154;48.810;9.012;2022-07-10T12:47:47;20.30;72.40
8226;DHT22;4154;48.810;9.012;2022-07-10T12:50:15;20.50;73.50
8226;DHT22;4154;48.810;9.012;2022-07-10T12:52:45;20.60;71.70
8226;DHT22;4154;48.810;9.012;2022-07-10T12:55:21;20.70;71.30
8226;DHT22;4154;48.810;9.012;2022-07-10T12:57:58;20.80;71.80
8226;DHT22;4154;48.810;9.012;2022-07-10T13:00:33;20.90;72.60
8226;DHT22;4154;48.810;9.012;2022-07-10T13:03:16;21.00;69.00
8226;DHT22;4154;48.810;9.012;2022-07-10T13:05:43;20.80;69.70
8226;DHT22;4154;48.810;9.012;2022-07-10T13:08:11;20.70;69.30
8226;DHT22;4154;48.810;9.012;2022-07-10T13:10:49;20.50;67.70
8226;DHT22;4154;48.810;9.012;2022-07-10T13:13:23;20.40;69.30
8226;DHT22;4154;48.810;9.012;2022-07-10T13:15:49;20.40;71.50
8226;DHT22;4154;48.810;9.012;2022-07-10T13:18:20;20.50;70.80
8226;DHT22;4154;48.810;9.012;2022-07-10T13:20:50;20.70;70.10
8226;DHT22;4154;48.810;9.012;2022-07-10T13:23:18;20.80;70.10
8226;DHT22;4154;48.810;9.012;2022-07-10T13:25:48;20.90;69.20
8226;DHT22;4154;48.810;9.012;2022-07-10T13:28:15;21.00;71.00
8226;DHT22;4154;48.810;9.012;2022-07-10T13:30:42;21.10;70.30
8226;DHT22;4154;48.810;9.012;2022-07-10T13:33:09;21.20;69.20
8226;DHT22;4154;48.810;9.012;2022-07-10T13:35:35;21.30;69.10
8226;DHT22;4154;48.810;9.012;2022-07-10T13:38:02;21.30;68.50
8226;DHT22;4154;48.810;9.012;2022-07-10T13:40:32;21.40;69.70
8226;DHT22;4154;48.810;9.012;2022-07-10T13:43:00;21.50;69.30
8226;DHT22;4154;48.810;9.012;2022-07-10T13:45:26;21.60;68.50
8226;DHT22;4154;48.810;9.012;2022-07-10T13:48:02;21.70;67.30
8226;DHT22;4154;48.810;9.012;2022-07-10T13:50:29;21.70;69.80
8226;DHT22;4154;48.810;9.012;2022-07-10T13:52:54;21.60;66.30
8226;DHT22;4154;48.810;9.012;2022-07-10T13:55:20;21.60;66.70
8226;DHT22;4154;48.810;9.012;2022-07-10T13:57:46;21.60;67.90
8226;DHT22;4154;48.810;9.012;2022-07-10T14:00:12;21.60;67.30
8226;DHT22;4154;48.810;9.012;2022-07-10T14:02:38;21.50;67.30
8226;DHT22;4154;48.810;9.012;2022-07-10T14:05:05;21.50;68.50
8226;DHT22;4154;48.810;9.012;2022-07-10T14:07:33;21.50;68.30
8226;DHT22;4154;48.810;9.012;2022-07-10T14:09:59;21.60;69.20
8226;DHT22;4154;48.810;9.012;2022-07-10T14:12:26;21.80;67.10
8226;DHT22;4154;48.810;9.012;2022-07-10T14:14:52;21.80;67.50
8226;DHT22;4154;48.810;9.012;2022-07-10T14:17:18;21.80;65.90
8226;DHT22;4154;48.810;9.012;2022-07-10T14:19:44;21.70;66.80
8226;DHT22;4154;48.810;9.012;2022-07-10T14:22:10;21.70;67.50
8226;DHT22;4154;48.810;9.012;2022-07-10T14:24:35;21.60;67.90
8226;DHT22;4154;48.810;9.012;2022-07-10T14:27:01;21.70;67.30
8226;DHT22;4154;48.810;9.012;2022-07-10T14:29:27;21.70;67.80
8226;DHT22;4154;48.810;9.012;2022-07-10T14:31:53;21.80;66.70
8226;DHT22;4154;48.810;9.012;2022-07-10T14:34:20;21.80;67.30
8226;DHT22;4154;48.810;9.012;2022-07-10T14:36:45;21.90;68.70
8226;DHT22;4154;48.810;9.012;2022-07-10T14:39:11;22.00;66.40
8226;DHT22;4154;48.810;9.012;2022-07-10T14:41:38;22.10;67.40
8226;DHT22;4154;48.810;9.012;2022-07-10T14:44:05;22.10;68.00
8226;DHT22;4154;48.810;9.012;2022-07-10T14:46:32;22.20;68.20
8226;DHT22;4154;48.810;9.012;2022-07-10T14:48:58;22.20;67.30
8226;DHT22;4154;48.810;9.012;2022-07-10T14:51:23;22.10;65.60
8226;DHT22;4154;48.810;9.012;2022-07-10T14:53:49;22.00;66.10
8226;DHT22;4154;48.810;9.012;2022-07-10T14:56:15;21.90;66.00
8226;DHT22;4154;48.810;9.012;2022-07-10T14:58:45;21.90;66.80
8226;DHT22;4154;48.810;9.012;2022-07-10T15:01:12;21.90;66.30
8226;DHT22;4154;48.810;9.012;2022-07-10T15:03:38;21.90;66.50
8226;DHT22;4154;48.810;9.012;2022-07-10T15:06:04;21.90;67.50
8226;DHT22;4154;48.810;9.012;2022-07-10T15:08:30;21.90;66.50
8226;DHT22;4154;48.810;9.012;2022-07-10T15:10:57;22.00;66.70
8226;DHT22;4154;48.810;9.012;2022-07-10T15:13:25;22.00;66.10
8226;DHT22;4154;48.810;9.012;2022-07-10T15:15:53;22.00;66.80
8226;DHT22;4154;48.810;9.012;2022-07-10T15:18:20;22.00;67.10
8226;DHT22;4154;48.810;9.012;2022-07-10T15:20:47;22.10;67.60
8226;DHT22;4154;48.810;9.012;2022-07-10T15:23:16;22.20;66.60
8226;DHT22;4154;48.810;9.012;2022-07-10T15:25:42;22.20;66.70
8226;DHT22;4154;48.810;9.012;2022-07-10T15:28:14;22.20;65.80
8226;DHT22;4154;48.810;9.012;2022-07-10T15:30:39;22.10;66.60
8226;DHT22;4154;48.810;9.012;2022-07-10T15:33:07;22.00;67.00
8226;DHT22;4154;48.810;9.012;2022-07-10T15:35:33;22.00;67.50
8226;DHT22;4154;48.810;9.012;2022-07-10T15:37:59;22.00;65.70
8226;DHT22;4154;48.810;9.012;2022-07-10T15:40:29;21.90;65.70
8226;DHT22;4154;48.810;9.012;2022-07-10T15:42:56;21.80;66.30
8226;DHT22;4154;48.810;9.012;2022-07-10T15:45:26;21.70;66.70
8226;DHT22;4154;48.810;9.012;2022-07-10T15:47:52;21.70;66.80
8226;DHT22;4154;48.810;9.012;2022-07-10T15:50:19;21.80;66.30
8226;DHT22;4154;48.810;9.012;2022-07-10T15:52:45;21.80;67.50
8226;DHT22;4154;48.810;9.012;2022-07-10T15:55:12;21.90;66.50
8226;DHT22;4154;48.810;9.012;2022-07-10T15:57:38;21.90;65.70
8226;DHT22;4154;48.810;9.012;2022-07-10T16:00:06;22.00;65.80
8226;DHT22;4154;48.810;9.012;2022-07-10T16:02:33;21.90;66.10
8226;DHT22;4154;48.810;9.012;2022-07-10T16:05:00;21.80;67.00
8226;DHT22;4154;48.810;9.012;2022-07-10T16:07:26;21.60;66.30
8226;DHT22;4154;48.810;9.012;2022-07-10T16:09:52;21.50;67.30
8226;DHT22;4154;48.810;9.012;2022-07-10T16:12:18;21.30;67.10
8226;DHT22;4154;48.810;9.012;2022-07-10T16:14:44;21.40;67.60
8226;DHT22;4154;48.810;9.012;2022-07-10T16:17:10;21.30;68.30
8226;DHT22;4154;48.810;9.012;2022-07-10T16:19:35;21.30;68.30
8226;DHT22;4154;48.810;9.012;2022-07-10T16:22:01;21.20;67.60
8226;DHT22;4154;48.810;9.012;2022-07-10T16:24:27;21.10;67.20
8226;DHT22;4154;48.810;9.012;2022-07-10T16:26:53;21.00;67.90
8226;DHT22;4154;48.810;9.012;2022-07-10T16:29:19;21.00;69.80
8226;DHT22;4154;48.810;9.012;2022-07-10T16:31:51;21.10;68.40
8226;DHT22;4154;48.810;9.012;2022-07-10T16:34:17;21.10;68.70
8226;DHT22;4154;48.810;9.012;2022-07-10T16:36:43;21.00;69.00
8226;DHT22;4154;48.810;9.012;2022-07-10T16:39:09;21.00;69.10
8226;DHT22;4154;48.810;9.012;2022-07-10T16:41:34;20.90;70.00
8226;DHT22;4154;48.810;9.012;2022-07-10T16:44:00;20.90;70.30
8226;DHT22;4154;48.810;9.012;2022-07-10T16:46:26;20.80;69.80
8226;DHT22;4154;48.810;9.012;2022-07-10T16:48:52;20.80;70.40
8226;DHT22;4154;48.810;9.012;2022-07-10T16:51:18;20.70;70.60
8226;DHT22;4154;48.810;9.012;2022-07-10T16:53:44;20.70;70.50
8226;DHT22;4154;48.810;9.012;2022-07-10T16:56:10;20.70;70.00
8226;DHT22;4154;48.810;9.012;2022-07-10T16:58:36;20.70;70.10
8226;DHT22;4154;48.810;9.012;2022-07-10T17:01:02;20.60;70.30
8226;DHT22;4154;48.810;9.012;2022-07-10T17:03:29;20.60;70.70
8226;DHT22;4154;48.810;9.012;2022-07-10T17:05:55;20.60;70.70
8226;DHT22;4154;48.810;9.012;2022-07-10T17:08:21;20.50;71.40
8226;DHT22;4154;48.810;9.012;2022-07-10T17:10:47;20.50;70.90
8226;DHT22;4154;48.810;9.012;2022-07-10T17:13:13;20.50;70.40
8226;DHT22;4154;48.810;9.012;2022-07-10T17:15:40;20.40;71.00
8226;DHT22;4154;48.810;9.012;2022-07-10T17:18:06;20.30;71.20
8226;DHT22;4154;48.810;9.012;2022-07-10T17:20:32;20.30;71.50